Time;durP1;ratioP1;P1;durP2;ratioP2;P2;SDS_P1;SDS_P2;PMS_P1;PMS_P2;Temp;Humidity;BMP_temperature;BMP_pressure;BME280_temperature;BME280_humidity;BME280_pressure;Samples;Min_cycle;Max_cycle;Signal;HPM_P1;HPM_P2
2021/11/27 00:00:41;;;;;;;11.48;4.70;;;3.70;99.90;;;;;;5090907;28;20420;-55
2021/11/27 00:03:08;;;;;;;9.63;4.00;;;3.80;99.90;;;;;;5090107;28;20490;-54
2021/11/27 00:05:34;;;;;;;11.15;4.45;;;3.80;99.90;;;;;;5090355;28;20916;-54
2021/11/27 00:08:02;;;;;;;11.93;5.10;;;3.70;99.90;;;;;;5089825;28;20374;-54
2021/11/27 00:10:29;;;;;;;8.38;3.70;;;3.90;99.90;;;;;;5090733;28;20421;-54
2021/11/27 00:12:56;;;;;;;8.82;3.60;;;3.70;99.90;;;;;;5089674;28;20879;-55
2021/11/27 00:15:24;;;;;;;7.28;3.10;;;3.80;99.90;;;;;;5090399;28;20439;-54
2021/11/27 00:17:51;;;;;;;7.93;3.40;;;3.80;99.90;;;;;;5090461;28;20374;-62
2021/11/27 00:20:22;;;;;;;8.45;3.30;;;3.90;99.90;;;;;;5089820;28;20417;-54
2021/11/27 00:22:48;;;;;;;7.50;3.28;;;3.90;99.90;;;;;;5090267;28;20378;-55
2021/11/27 00:25:14;;;;;;;6.60;3.00;;;5.20;99.90;;;;;;5089360;28;20899;-54
2021/11/27 00:27:41;;;;;;;9.68;3.10;;;3.90;99.90;;;;;;5087211;28;20454;-58
2021/11/27 00:30:10;;;;;;;8.15;3.70;;;3.80;99.90;;;;;;5088954;28;20405;-54
2021/11/27 00:32:36;;;;;;;7.60;3.10;;;3.90;99.90;;;;;;5089900;28;20385;-54
2021/11/27 00:35:03;;;;;;;7.47;2.90;;;4.00;99.90;;;;;;5089299;28;20382;-55
2021/11/27 00:37:29;;;;;;;6.85;3.10;;;3.90;99.90;;;;;;5090036;28;20374;-58
2021/11/27 00:39:55;;;;;;;7.88;2.85;;;3.80;99.90;;;;;;5089690;28;20392;-55
2021/11/27 00:42:20;;;;;;;6.30;2.60;;;3.80;99.90;;;;;;5090089;28;20471;-54
2021/11/27 00:44:46;;;;;;;7.32;3.00;;;2.80;99.90;;;;;;5088681;28;20728;-54
2021/11/27 00:47:12;;;;;;;7.00;2.88;;;3.90;99.90;;;;;;5088774;28;20367;-54
2021/11/27 00:49:38;;;;;;;6.57;2.50;;;4.00;99.90;;;;;;5087896;28;20398;-54
2021/11/27 00:52:04;;;;;;;5.88;2.35;;;4.00;99.90;;;;;;5089186;28;20422;-54
2021/11/27 00:54:30;;;;;;;6.00;2.33;;;4.00;99.90;;;;;;5089989;28;20378;-54
2021/11/27 00:56:56;;;;;;;7.33;2.80;;;3.90;99.90;;;;;;5089169;28;20432;-55
2021/11/27 00:59:21;;;;;;;6.00;2.60;;;3.90;99.90;;;;;;5071311;28;20375;-54
2021/11/27 01:01:47;;;;;;;6.33;2.90;;;3.90;99.90;;;;;;5089929;28;20877;-54
2021/11/27 01:04:14;;;;;;;7.20;2.80;;;3.90;99.90;;;;;;5088813;28;20843;-54
2021/11/27 01:06:40;;;;;;;7.97;3.15;;;3.90;99.90;;;;;;5089335;28;20847;-54
2021/11/27 01:09:14;;;;;;;8.95;3.13;;;3.80;99.90;;;;;;5070774;28;20898;-54
2021/11/27 01:11:49;;;;;;;6.10;2.83;;;3.70;99.90;;;;;;5085613;28;20419;-54
2021/11/27 01:14:20;;;;;;;7.13;2.85;;;4.30;99.90;;;;;;5068272;28;20383;-54
2021/11/27 01:16:49;;;;;;;7.35;2.92;;;3.80;99.90;;;;;;5069106;28;20850;-54
2021/11/27 01:19:15;;;;;;;7.35;3.00;;;3.80;99.90;;;;;;5067968;28;20375;-54
2021/11/27 01:21:48;;;;;;;6.20;2.20;;;3.80;99.90;;;;;;5069394;28;20476;-54
2021/11/27 01:24:15;;;;;;;6.80;2.70;;;3.80;99.90;;;;;;5068539;28;20493;-54
2021/11/27 01:26:42;;;;;;;7.95;3.20;;;3.80;99.90;;;;;;5068878;28;20391;-54
2021/11/27 01:29:08;;;;;;;6.13;2.10;;;3.80;99.90;;;;;;5068116;28;20383;-54
2021/11/27 01:31:34;;;;;;;7.40;2.40;;;3.80;99.90;;;;;;5068696;28;20408;-54
2021/11/27 01:34:01;;;;;;;5.65;2.30;;;3.80;99.90;;;;;;5068076;28;20470;-54
2021/11/27 01:36:26;;;;;;;7.85;2.72;;;5.20;99.90;;;;;;5068791;28;20376;-54
2021/11/27 01:38:52;;;;;;;6.97;2.60;;;3.80;99.90;;;;;;5069059;28;20390;-54
2021/11/27 01:41:18;;;;;;;7.18;3.00;;;3.80;99.90;;;;;;5067821;28;20838;-55
2021/11/27 01:43:45;;;;;;;7.33;2.80;;;3.70;99.90;;;;;;5067995;28;20894;-54
2021/11/27 01:46:11;;;;;;;7.40;2.67;;;3.70;99.90;;;;;;5068000;28;20376;-54
2021/11/27 01:48:40;;;;;;;6.50;2.80;;;3.70;99.90;;;;;;5068505;28;20564;-55
2021/11/27 01:51:14;;;;;;;8.60;3.08;;;5.00;99.90;;;;;;5049863;28;20439;-54
2021/11/27 01:53:43;;;;;;;7.22;2.60;;;3.70;99.90;;;;;;5068798;28;20383;-54
2021/11/27 01:56:13;;;;;;;7.05;2.70;;;3.60;99.90;;;;;;5068032;28;20387;-54
2021/11/27 01:58:40;;;;;;;6.53;2.60;;;3.80;99.90;;;;;;5068675;28;20470;-54
2021/11/27 02:01:16;;;;;;;7.50;2.50;;;3.70;99.90;;;;;;5049915;28;20407;-54
2021/11/27 02:03:43;;;;;;;8.63;2.83;;;3.90;99.90;;;;;;5050674;28;20392;-54
2021/11/27 02:06:10;;;;;;;7.43;3.05;;;4.80;99.90;;;;;;5067724;28;20407;-54
2021/11/27 02:08:36;;;;;;;8.02;3.20;;;3.80;99.90;;;;;;5068778;28;20387;-54
2021/11/27 02:11:04;;;;;;;6.72;2.70;;;3.70;99.90;;;;;;5067630;28;20424;-54
2021/11/27 02:13:30;;;;;;;6.50;2.80;;;3.50;99.90;;;;;;5068246;28;20485;-54
2021/11/27 02:15:56;;;;;;;6.70;2.50;;;3.60;99.90;;;;;;5068236;28;20384;-54
2021/11/27 02:18:21;;;;;;;7.60;3.20;;;3.60;99.90;;;;;;5067650;28;20386;-54
2021/11/27 02:21:15;;;;;;;7.35;3.33;;;3.50;99.90;;;;;;5068997;28;20856;-54
2021/11/27 02:23:41;;;;;;;6.18;2.40;;;3.70;99.90;;;;;;5064824;28;20419;-54
2021/11/27 02:26:11;;;;;;;7.00;2.60;;;3.50;99.90;;;;;;5067956;28;20437;-54
2021/11/27 02:28:39;;;;;;;6.88;2.70;;;3.50;99.90;;;;;;5050530;28;20398;-54
2021/11/27 02:31:05;;;;;;;6.93;2.50;;;4.50;99.90;;;;;;5066989;28;20442;-54
2021/11/27 02:33:31;;;;;;;7.65;2.80;;;3.50;99.90;;;;;;5065669;28;20901;-55
2021/11/27 02:35:57;;;;;;;7.32;2.90;;;3.60;99.90;;;;;;5068196;28;20466;-54
2021/11/27 02:38:23;;;;;;;7.00;2.80;;;3.70;99.90;;;;;;5049533;28;20392;-54
2021/11/27 02:40:49;;;;;;;6.50;2.70;;;3.60;99.90;;;;;;5068239;28;20452;-55
2021/11/27 02:43:15;;;;;;;7.38;2.70;;;3.60;99.90;;;;;;5067914;28;20438;-54
2021/11/27 02:45:41;;;;;;;7.13;2.33;;;3.90;99.90;;;;;;5068321;28;20372;-55
2021/11/27 02:48:08;;;;;;;6.70;2.53;;;3.70;99.90;;;;;;5067533;28;20386;-55
2021/11/27 02:50:34;;;;;;;6.97;2.60;;;4.90;99.90;;;;;;5068377;28;20411;-54
2021/11/27 02:53:00;;;;;;;5.73;2.57;;;5.20;99.90;;;;;;5068230;28;20387;-55
2021/11/27 02:55:26;;;;;;;6.65;2.88;;;3.80;99.90;;;;;;5070504;28;20793;-54
2021/11/27 02:57:51;;;;;;;7.20;2.83;;;3.80;99.90;;;;;;5072173;28;20383;-54
2021/11/27 03:00:20;;;;;;;6.40;2.80;;;4.00;99.90;;;;;;5070746;28;20869;-54
2021/11/27 03:02:47;;;;;;;7.20;2.93;;;4.00;99.90;;;;;;5071474;28;20522;-54
2021/11/27 03:05:13;;;;;;;7.60;3.00;;;4.50;99.90;;;;;;5071076;28;20392;-54
2021/11/27 03:07:39;;;;;;;6.68;2.80;;;4.00;99.90;;;;;;5071609;28;20459;-54
2021/11/27 03:10:07;;;;;;;6.30;2.25;;;4.00;99.90;;;;;;5070729;28;20510;-54
2021/11/27 03:12:33;;;;;;;6.13;2.30;;;4.00;99.90;;;;;;5071305;28;20493;-54
2021/11/27 03:14:59;;;;;;;7.43;2.80;;;4.00;99.90;;;;;;5071329;28;20451;-54
2021/11/27 03:17:25;;;;;;;6.15;2.50;;;4.10;99.90;;;;;;5071040;28;20552;-54
2021/11/27 03:19:51;;;;;;;6.50;2.53;;;5.50;99.90;;;;;;5071620;28;20457;-54
2021/11/27 03:22:19;;;;;;;6.75;2.47;;;4.10;99.90;;;;;;5070642;28;20487;-54
2021/11/27 03:24:46;;;;;;;8.98;2.95;;;4.20;99.90;;;;;;5071429;28;20392;-54
2021/11/27 03:27:14;;;;;;;6.70;2.70;;;4.00;99.90;;;;;;5070452;28;20466;-54
2021/11/27 03:29:40;;;;;;;6.45;2.65;;;4.10;99.90;;;;;;5071324;28;20434;-54
2021/11/27 03:32:13;;;;;;;7.18;2.70;;;4.00;99.90;;;;;;5070424;28;20372;-55
2021/11/27 03:34:40;;;;;;;7.38;2.60;;;4.00;99.90;;;;;;5070902;28;20470;-54
2021/11/27 03:37:06;;;;;;;7.55;2.85;;;4.00;99.90;;;;;;5070399;28;20387;-55
2021/11/27 03:39:33;;;;;;;8.00;3.33;;;4.00;99.90;;;;;;5071034;28;20433;-54
2021/11/27 03:42:05;;;;;;;7.60;3.20;;;4.00;99.90;;;;;;5071425;28;20379;-54
2021/11/27 03:44:31;;;;;;;7.57;3.15;;;4.80;99.90;;;;;;5070989;28;20396;-54
2021/11/27 03:46:59;;;;;;;7.03;3.28;;;4.20;99.90;;;;;;5071026;28;20419;-54
2021/11/27 03:49:27;;;;;;;7.68;3.17;;;4.10;99.90;;;;;;5070093;28;20376;-54
2021/11/27 03:51:54;;;;;;;8.00;3.20;;;4.10;99.90;;;;;;5070892;28;20881;-55
2021/11/27 03:54:20;;;;;;;8.00;3.40;;;4.00;99.90;;;;;;5070223;28;20376;-54
2021/11/27 03:56:46;;;;;;;7.10;3.15;;;4.10;99.90;;;;;;5070911;28;20390;-54
2021/11/27 03:59:12;;;;;;;6.85;2.88;;;4.10;99.90;;;;;;5069939;28;20471;-54
2021/11/27 04:01:38;;;;;;;6.18;2.60;;;4.00;99.90;;;;;;5070719;28;20466;-54
2021/11/27 04:04:06;;;;;;;7.30;2.72;;;4.50;99.90;;;;;;5070428;28;20375;-55
2021/11/27 04:06:33;;;;;;;7.18;2.70;;;4.20;99.90;;;;;;5069421;28;20880;-55
2021/11/27 04:09:00;;;;;;;6.57;2.95;;;4.20;99.90;;;;;;5070266;28;20388;-54
2021/11/27 04:11:27;;;;;;;6.53;2.70;;;4.20;99.90;;;;;;5069164;28;20423;-54
2021/11/27 04:13:53;;;;;;;6.88;2.80;;;4.90;99.90;;;;;;5070206;28;20533;-54
2021/11/27 04:16:20;;;;;;;7.70;2.80;;;4.20;99.90;;;;;;5069574;28;20467;-54
2021/11/27 04:18:46;;;;;;;6.90;2.75;;;4.20;99.90;;;;;;5070365;28;20392;-54
2021/11/27 04:21:20;;;;;;;6.53;2.53;;;4.20;99.90;;;;;;5069461;28;20387;-54
2021/11/27 04:23:47;;;;;;;7.00;3.15;;;4.00;99.90;;;;;;5069424;28;20472;-54
2021/11/27 04:26:13;;;;;;;6.82;2.90;;;4.00;99.90;;;;;;5069445;28;20372;-54
2021/11/27 04:28:40;;;;;;;7.90;2.80;;;4.00;99.90;;;;;;5070258;28;20380;-54
2021/11/27 04:31:05;;;;;;;6.80;2.72;;;4.10;99.90;;;;;;5069942;28;20395;-55
2021/11/27 04:33:32;;;;;;;7.70;3.20;;;4.10;99.90;;;;;;5069323;28;20845;-54
2021/11/27 04:35:58;;;;;;;6.22;2.53;;;4.10;99.90;;;;;;5052098;28;20391;-54
2021/11/27 04:38:25;;;;;;;7.75;3.00;;;4.00;99.90;;;;;;5069233;28;20372;-54
2021/11/27 04:40:51;;;;;;;7.77;3.13;;;4.00;99.90;;;;;;5069664;28;20481;-54
2021/11/27 04:43:17;;;;;;;7.20;2.90;;;4.00;99.90;;;;;;5069097;28;20392;-54
2021/11/27 04:45:44;;;;;;;8.63;3.28;;;4.00;99.90;;;;;;5052048;28;20388;-54
2021/11/27 04:48:10;;;;;;;8.68;3.20;;;4.20;99.90;;;;;;5069007;28;20371;-55
2021/11/27 04:50:37;;;;;;;6.10;2.70;;;5.30;99.90;;;;;;5069665;28;20411;-54
2021/11/27 04:53:03;;;;;;;6.30;2.88;;;4.00;99.90;;;;;;5069510;28;20474;-54
2021/11/27 04:55:30;;;;;;;6.15;2.50;;;3.90;99.90;;;;;;5051054;28;20387;-54
2021/11/27 04:57:56;;;;;;;6.55;2.50;;;3.90;99.90;;;;;;5069630;28;20380;-54
2021/11/27 05:00:27;;;;;;;11.07;2.90;;;3.90;99.90;;;;;;5050998;28;20406;-54
2021/11/27 05:02:53;;;;;;;7.00;2.63;;;4.00;99.90;;;;;;5069227;28;20749;-54
2021/11/27 05:05:20;;;;;;;6.22;2.78;;;4.00;99.90;;;;;;5068558;28;20391;-54
2021/11/27 05:07:46;;;;;;;6.85;2.50;;;4.00;99.90;;;;;;5069492;28;20410;-54
2021/11/27 05:10:12;;;;;;;5.88;2.10;;;4.00;99.90;;;;;;5068632;28;20423;-56
2021/11/27 05:12:38;;;;;;;6.40;2.40;;;4.10;99.90;;;;;;5069062;28;20435;-54
2021/11/27 05:15:05;;;;;;;6.10;2.20;;;4.90;99.90;;;;;;5068793;28;20722;-54
2021/11/27 05:17:31;;;;;;;5.70;2.40;;;4.00;99.90;;;;;;5067976;28;20954;-54
2021/11/27 05:19:57;;;;;;;6.53;2.20;;;4.00;99.90;;;;;;5069082;28;20387;-54
2021/11/27 05:22:23;;;;;;;5.35;2.10;;;4.10;99.90;;;;;;5068478;28;20568;-54
2021/11/27 05:24:49;;;;;;;6.50;2.38;;;4.10;99.90;;;;;;5069308;28;20383;-54
2021/11/27 05:27:17;;;;;;;6.40;2.10;;;4.10;99.90;;;;;;5068430;28;20906;-55
2021/11/27 05:29:43;;;;;;;5.40;1.88;;;4.00;99.90;;;;;;5069251;28;20371;-54
2021/11/27 05:32:20;;;;;;;5.65;1.70;;;4.00;99.90;;;;;;5069082;28;20407;-54
2021/11/27 05:34:47;;;;;;;5.03;1.80;;;4.10;99.90;;;;;;5069283;28;20840;-54
2021/11/27 05:37:12;;;;;;;5.50;1.58;;;4.10;99.90;;;;;;5068593;28;20518;-55
2021/11/27 05:39:41;;;;;;;4.73;1.80;;;4.10;99.90;;;;;;5069215;28;20487;-54
2021/11/27 05:42:06;;;;;;;4.50;1.50;;;4.10;99.90;;;;;;5069264;28;20392;-54
2021/11/27 05:44:32;;;;;;;4.47;1.47;;;4.10;99.90;;;;;;5068000;28;21009;-54
2021/11/27 05:46:58;;;;;;;4.45;1.38;;;4.10;99.90;;;;;;5068967;28;20601;-54
2021/11/27 05:49:23;;;;;;;4.70;1.40;;;4.10;99.90;;;;;;5068280;28;20462;-54
2021/11/27 05:51:49;;;;;;;5.50;1.60;;;4.10;99.90;;;;;;5067172;28;20412;-55
2021/11/27 05:54:15;;;;;;;8.00;1.70;;;4.10;99.90;;;;;;5068437;28;20376;-55
2021/11/27 05:56:41;;;;;;;4.57;1.30;;;4.10;99.90;;;;;;5068933;28;20379;-54
2021/11/27 05:59:07;;;;;;;4.80;1.30;;;4.10;99.90;;;;;;5068882;28;20380;-55
2021/11/27 06:01:33;;;;;;;4.30;1.50;;;4.00;99.90;;;;;;5068012;28;20989;-54
2021/11/27 06:03:58;;;;;;;4.20;1.25;;;4.00;99.90;;;;;;5068592;28;20794;-54
2021/11/27 06:06:24;;;;;;;4.90;1.40;;;4.10;99.90;;;;;;5068310;28;20390;-54
2021/11/27 06:08:49;;;;;;;4.00;1.20;;;4.10;99.90;;;;;;5069229;28;20386;-54
2021/11/27 06:11:15;;;;;;;3.92;1.00;;;4.10;99.90;;;;;;5064433;28;20467;-55
2021/11/27 06:13:41;;;;;;;3.88;1.00;;;4.10;99.90;;;;;;5079237;28;20481;-55
2021/11/27 06:16:07;;;;;;;4.10;1.10;;;4.10;99.90;;;;;;5088652;28;20378;-54
2021/11/27 06:18:36;;;;;;;4.32;1.30;;;4.20;99.90;;;;;;5087507;28;20870;-54
2021/11/27 06:21:03;;;;;;;5.30;1.20;;;4.10;99.90;;;;;;5088734;28;20390;-55
2021/11/27 06:23:29;;;;;;;4.30;1.10;;;4.70;99.90;;;;;;5088054;28;20373;-54
2021/11/27 06:25:55;;;;;;;4.10;1.10;;;4.20;99.90;;;;;;5088778;28;20769;-54
2021/11/27 06:28:23;;;;;;;4.45;1.10;;;4.30;99.90;;;;;;5087031;28;20414;-54
2021/11/27 06:30:49;;;;;;;4.18;1.23;;;4.20;99.90;;;;;;5073828;28;20493;-54
2021/11/27 06:33:14;;;;;;;3.70;0.90;;;4.20;99.90;;;;;;5091693;28;20376;-55
2021/11/27 06:35:40;;;;;;;4.50;1.00;;;4.20;99.90;;;;;;5092491;28;20826;-55
2021/11/27 06:38:06;;;;;;;4.60;1.20;;;4.20;99.90;;;;;;5092643;28;20779;-55
2021/11/27 06:40:32;;;;;;;3.83;0.90;;;4.30;99.90;;;;;;5091435;28;20398;-55
2021/11/27 06:43:01;;;;;;;3.78;1.13;;;5.10;99.90;;;;;;5092551;28;20466;-55
2021/11/27 06:45:28;;;;;;;4.00;0.90;;;4.30;99.90;;;;;;5091765;28;20385;-55
2021/11/27 06:47:54;;;;;;;3.95;1.00;;;4.40;99.90;;;;;;5092040;28;20712;-54
2021/11/27 06:50:20;;;;;;;4.18;1.10;;;4.40;99.90;;;;;;5073146;28;20497;-55
2021/11/27 06:52:46;;;;;;;4.07;1.00;;;4.40;99.90;;;;;;5091344;28;20477;-54
2021/11/27 06:55:11;;;;;;;3.90;0.90;;;4.70;99.90;;;;;;5092188;28;20716;-54
2021/11/27 06:57:37;;;;;;;4.73;1.10;;;4.30;99.90;;;;;;5091214;28;20469;-55
2021/11/27 07:00:07;;;;;;;4.90;1.07;;;4.40;99.90;;;;;;5088927;28;20470;-54
2021/11/27 07:02:33;;;;;;;4.15;1.13;;;4.50;99.90;;;;;;5074727;28;20387;-54
2021/11/27 07:04:59;;;;;;;3.97;1.02;;;4.40;99.90;;;;;;5073160;28;20405;-54
2021/11/27 07:07:25;;;;;;;3.67;0.93;;;4.40;99.90;;;;;;5080878;28;20409;-54
2021/11/27 07:09:51;;;;;;;3.90;1.00;;;4.30;99.90;;;;;;5064979;28;20383;-54
2021/11/27 07:12:17;;;;;;;4.55;1.45;;;4.30;99.90;;;;;;5070227;28;20403;-55
2021/11/27 07:14:42;;;;;;;4.20;1.07;;;4.20;99.90;;;;;;5076120;28;20964;-54
2021/11/27 07:17:08;;;;;;;3.90;1.10;;;4.10;99.90;;;;;;5076803;28;20753;-54
2021/11/27 07:19:34;;;;;;;4.05;0.98;;;4.00;99.90;;;;;;5078264;28;20834;-54
2021/11/27 07:22:00;;;;;;;4.67;1.10;;;3.90;99.90;;;;;;5074108;28;20803;-54
2021/11/27 07:24:27;;;;;;;4.63;1.20;;;4.00;99.90;;;;;;5086974;28;20383;-54
2021/11/27 07:26:52;;;;;;;4.00;1.40;;;4.00;99.90;;;;;;5087944;28;20378;-54
2021/11/27 07:29:18;;;;;;;4.50;1.30;;;4.10;99.90;;;;;;5089814;28;20871;-56
2021/11/27 07:31:44;;;;;;;4.00;1.30;;;4.20;99.90;;;;;;5090901;28;20444;-54
2021/11/27 07:34:10;;;;;;;4.90;1.60;;;4.10;99.90;;;;;;5091650;28;20401;-54
2021/11/27 07:36:37;;;;;;;4.78;1.48;;;4.20;99.90;;;;;;5090670;28;20393;-54
2021/11/27 07:39:08;;;;;;;4.10;1.30;;;4.20;99.90;;;;;;5088238;28;20753;-54
2021/11/27 07:41:33;;;;;;;4.40;1.50;;;4.80;99.90;;;;;;5069106;28;20866;-54
2021/11/27 07:43:59;;;;;;;4.93;1.45;;;4.10;99.90;;;;;;5071327;28;20384;-54
2021/11/27 07:46:25;;;;;;;4.30;1.20;;;4.10;99.90;;;;;;5070063;28;20387;-54
2021/11/27 07:48:51;;;;;;;4.20;1.37;;;4.20;99.90;;;;;;5070512;28;20380;-55
2021/11/27 07:51:16;;;;;;;4.60;1.30;;;4.20;99.90;;;;;;5070510;28;20859;-56
2021/11/27 07:53:43;;;;;;;4.75;1.42;;;4.30;99.90;;;;;;5069621;28;20458;-55
2021/11/27 07:56:10;;;;;;;4.05;1.20;;;4.30;99.90;;;;;;5070866;28;20383;-55
2021/11/27 07:58:36;;;;;;;5.03;1.43;;;4.30;99.90;;;;;;5052155;28;20730;-53
2021/11/27 08:01:02;;;;;;;5.07;1.40;;;5.40;99.90;;;;;;5070563;28;20384;-53
2021/11/27 08:03:29;;;;;;;5.50;1.40;;;4.40;99.90;;;;;;5061571;28;20402;-53
2021/11/27 08:05:55;;;;;;;4.50;1.20;;;4.50;99.90;;;;;;5090311;28;20863;-53
2021/11/27 08:08:20;;;;;;;4.40;1.40;;;4.50;99.90;;;;;;5090305;28;20382;-55
2021/11/27 08:10:46;;;;;;;4.53;1.50;;;4.60;99.90;;;;;;5090368;28;20463;-54
2021/11/27 08:13:12;;;;;;;4.30;1.30;;;4.70;99.90;;;;;;5071938;28;20425;-53
2021/11/27 08:15:37;;;;;;;4.50;1.60;;;4.70;99.90;;;;;;5031373;28;20975;-54
2021/11/27 08:18:03;;;;;;;4.60;1.30;;;4.90;99.90;;;;;;5049935;28;20473;-53
2021/11/27 08:20:29;;;;;;;5.75;1.50;;;5.00;99.90;;;;;;5049908;28;20412;-53
2021/11/27 08:22:55;;;;;;;4.72;1.40;;;5.20;99.90;;;;;;5069628;28;20426;-53
2021/11/27 08:25:21;;;;;;;5.07;1.37;;;5.40;99.90;;;;;;5052048;28;20380;-55
2021/11/27 08:27:46;;;;;;;4.90;1.53;;;5.80;99.90;;;;;;5069832;28;20368;-53
2021/11/27 08:30:16;;;;;;;4.80;1.50;;;7.20;99.90;;;;;;5069761;28;20421;-53
2021/11/27 08:32:42;;;;;;;7.10;1.70;;;7.40;99.90;;;;;;5069069;28;20406;-53
2021/11/27 08:35:08;;;;;;;5.70;1.80;;;7.10;99.90;;;;;;5045100;28;20409;-53
2021/11/27 08:37:34;;;;;;;4.90;1.50;;;6.50;99.90;;;;;;5058739;28;20391;-53
2021/11/27 08:40:00;;;;;;;4.50;1.30;;;6.00;99.90;;;;;;5053989;28;20416;-54
2021/11/27 08:42:26;;;;;;;4.70;1.60;;;5.70;99.90;;;;;;5055599;28;20423;-54
2021/11/27 08:44:53;;;;;;;5.45;1.70;;;5.90;99.90;;;;;;5062733;28;20443;-53
2021/11/27 08:47:19;;;;;;;4.57;1.70;;;5.90;99.90;;;;;;5057291;28;20388;-54
2021/11/27 08:49:46;;;;;;;6.13;1.70;;;5.10;99.90;;;;;;5061307;28;20377;-53
2021/11/27 08:52:12;;;;;;;5.28;1.90;;;6.20;99.90;;;;;;5059809;28;20745;-53
2021/11/27 08:54:38;;;;;;;4.35;1.45;;;6.30;99.90;;;;;;5053341;28;20926;-53
2021/11/27 08:57:04;;;;;;;6.33;1.90;;;6.50;99.90;;;;;;5052930;28;20759;-53
2021/11/27 08:59:30;;;;;;;5.00;1.80;;;6.60;99.90;;;;;;5058688;28;20489;-53
2021/11/27 09:01:56;;;;;;;4.53;1.45;;;6.50;99.90;;;;;;5051872;28;20394;-53
2021/11/27 09:04:22;;;;;;;5.50;1.90;;;6.30;99.90;;;;;;5062309;28;20475;-54
2021/11/27 09:06:48;;;;;;;5.00;1.70;;;6.40;99.90;;;;;;5057151;28;20398;-54
2021/11/27 09:09:15;;;;;;;5.80;1.77;;;6.10;99.90;;;;;;5056859;28;20411;-54
2021/11/27 09:11:41;;;;;;;4.75;1.70;;;6.00;99.90;;;;;;5067622;28;21122;-53
2021/11/27 09:14:08;;;;;;;5.25;1.80;;;6.00;99.90;;;;;;5087041;28;20409;-53
2021/11/27 09:16:34;;;;;;;5.88;2.10;;;5.80;99.90;;;;;;5085255;28;20409;-53
2021/11/27 09:19:01;;;;;;;5.33;1.80;;;5.90;99.90;;;;;;5084895;28;20393;-54
2021/11/27 09:21:27;;;;;;;5.15;2.08;;;5.30;99.90;;;;;;5081713;28;21269;-54
2021/11/27 09:23:53;;;;;;;4.82;1.77;;;5.50;99.90;;;;;;5085203;28;20413;-54
2021/11/27 09:26:19;;;;;;;5.80;2.17;;;5.80;99.90;;;;;;5084759;28;20443;-54
2021/11/27 09:28:45;;;;;;;4.90;1.88;;;5.70;99.90;;;;;;5082801;28;20395;-54
2021/11/27 09:31:11;;;;;;;5.30;1.60;;;5.70;99.90;;;;;;5086124;28;20402;-54
2021/11/27 09:33:36;;;;;;;5.50;1.80;;;5.70;99.90;;;;;;5081500;28;20390;-54
2021/11/27 09:36:07;;;;;;;4.47;1.70;;;5.80;99.90;;;;;;5083281;28;20771;-54
2021/11/27 09:38:35;;;;;;;4.60;1.65;;;5.90;99.90;;;;;;5084367;28;20415;-54
2021/11/27 09:41:22;;;;;;;5.80;2.08;;;5.90;99.90;;;;;;5084361;28;20434;-54
2021/11/27 09:43:50;;;;;;;5.57;1.95;;;5.80;99.90;;;;;;5083648;28;20919;-54
2021/11/27 09:46:20;;;;;;;4.95;1.80;;;6.00;99.90;;;;;;5084142;28;20883;-54
2021/11/27 09:48:49;;;;;;;4.70;1.60;;;6.00;99.90;;;;;;5082484;28;20380;-54
2021/11/27 09:51:15;;;;;;;5.13;1.80;;;6.00;99.90;;;;;;5084722;28;20425;-54
2021/11/27 09:53:41;;;;;;;4.80;1.60;;;6.20;99.90;;;;;;5066562;28;20405;-53
2021/11/27 09:56:08;;;;;;;5.07;1.70;;;6.30;99.90;;;;;;5084484;28;20397;-54
2021/11/27 09:58:34;;;;;;;6.40;2.00;;;6.80;99.90;;;;;;5083551;28;20478;-54
2021/11/27 10:01:03;;;;;;;5.70;2.10;;;7.20;99.90;;;;;;5084534;28;20473;-53
2021/11/27 10:03:30;;;;;;;6.80;2.05;;;7.50;99.90;;;;;;5084756;28;20397;-54
2021/11/27 10:05:57;;;;;;;5.60;2.10;;;7.90;99.90;;;;;;5090848;28;20389;-54
2021/11/27 10:08:24;;;;;;;4.90;1.67;;;8.00;99.90;;;;;;5084192;28;20388;-54
2021/11/27 10:10:50;;;;;;;6.00;2.22;;;8.20;99.90;;;;;;5090837;28;20473;-53
2021/11/27 10:13:18;;;;;;;5.10;1.70;;;8.40;99.90;;;;;;5086296;28;20421;-54
2021/11/27 10:15:44;;;;;;;5.97;1.92;;;8.60;99.90;;;;;;5086334;28;20554;-53
2021/11/27 10:18:17;;;;;;;5.93;1.90;;;8.80;99.90;;;;;;5072209;28;20818;-53
2021/11/27 10:20:43;;;;;;;6.00;1.70;;;8.20;99.90;;;;;;5072491;28;20726;-54
2021/11/27 10:23:10;;;;;;;4.53;1.40;;;8.20;99.90;;;;;;5088958;28;20423;-53
2021/11/27 10:25:45;;;;;;;6.37;1.90;;;7.70;99.90;;;;;;5082501;28;20378;-53
2021/11/27 10:28:12;;;;;;;4.70;1.65;;;7.60;99.90;;;;;;5072270;28;20489;-54
2021/11/27 10:30:42;;;;;;;7.50;3.10;;;7.20;99.90;;;;;;5084257;28;20489;-54
2021/11/27 10:33:08;;;;;;;5.88;1.90;;;7.30;99.90;;;;;;5089903;28;20896;-53
2021/11/27 10:35:34;;;;;;;5.40;1.70;;;7.60;99.90;;;;;;5090918;28;20378;-54
2021/11/27 10:37:59;;;;;;;6.37;1.90;;;8.40;99.90;;;;;;5091111;28;20390;-54
2021/11/27 10:40:28;;;;;;;7.13;1.73;;;9.20;99.90;;;;;;5091680;28;20396;-55
2021/11/27 10:42:53;;;;;;;5.88;1.50;;;10.20;99.90;;;;;;5088337;28;20391;-54
2021/11/27 10:45:22;;;;;;;11.70;2.90;;;11.00;99.90;;;;;;5088622;28;20398;-55
2021/11/27 10:47:49;;;;;;;4.80;1.20;;;10.00;99.90;;;;;;5070611;28;20399;-53
2021/11/27 10:50:21;;;;;;;4.50;1.10;;;9.50;99.90;;;;;;5073962;28;20444;-53
2021/11/27 10:52:49;;;;;;;4.70;1.37;;;8.90;99.90;;;;;;5080658;28;20439;-53
2021/11/27 10:55:26;;;;;;;5.20;1.40;;;8.40;99.90;;;;;;5077463;28;20409;-53
2021/11/27 10:57:58;;;;;;;7.78;2.47;;;8.20;99.90;;;;;;5079477;28;20484;-53
2021/11/27 11:00:35;;;;;;;5.07;1.40;;;7.90;99.90;;;;;;5083839;28;20406;-53
2021/11/27 11:03:02;;;;;;;5.75;1.30;;;7.70;99.90;;;;;;5075314;28;20395;-53
2021/11/27 11:05:33;;;;;;;4.90;1.30;;;7.60;99.90;;;;;;5070376;28;20737;-54
2021/11/27 11:08:00;;;;;;;5.28;1.60;;;7.10;99.90;;;;;;5075280;28;20407;-52
2021/11/27 11:10:36;;;;;;;20.63;8.93;;;6.90;99.90;;;;;;5075403;28;20481;-53
2021/11/27 11:13:10;;;;;;;22.77;9.73;;;6.80;99.90;;;;;;5076707;28;20472;-52
2021/11/27 11:15:38;;;;;;;5.05;1.60;;;6.80;99.90;;;;;;5074326;28;20415;-53
2021/11/27 11:18:09;;;;;;;5.70;1.50;;;7.10;99.90;;;;;;5070684;28;20396;-53
2021/11/27 11:20:37;;;;;;;4.90;1.52;;;7.00;99.90;;;;;;5080959;28;20412;-52
2021/11/27 11:23:03;;;;;;;5.60;1.60;;;6.90;99.90;;;;;;5086445;28;20389;-53
2021/11/27 11:25:30;;;;;;;7.75;2.47;;;6.80;99.90;;;;;;5077769;28;20403;-54
2021/11/27 11:28:00;;;;;;;5.03;1.40;;;6.70;99.90;;;;;;5081095;28;20469;-52
2021/11/27 11:30:36;;;;;;;6.30;2.40;;;6.40;99.90;;;;;;5076893;28;20505;-53
2021/11/27 11:33:03;;;;;;;8.95;3.70;;;6.30;99.90;;;;;;5088568;28;20388;-52
2021/11/27 11:35:30;;;;;;;9.00;3.53;;;6.30;99.90;;;;;;5086606;28;20374;-53
2021/11/27 11:37:56;;;;;;;4.60;1.20;;;6.20;99.90;;;;;;5063029;28;20392;-53
2021/11/27 11:40:22;;;;;;;5.00;1.50;;;6.00;99.90;;;;;;5082256;28;20471;-55
2021/11/27 11:42:48;;;;;;;5.33;2.03;;;5.50;99.90;;;;;;5078330;28;20410;-54
2021/11/27 11:45:14;;;;;;;5.43;1.70;;;5.10;99.90;;;;;;5086642;28;20374;-55
2021/11/27 11:47:39;;;;;;;5.20;1.30;;;4.90;99.90;;;;;;5080827;28;20405;-55
2021/11/27 11:50:08;;;;;;;3.90;0.90;;;4.40;99.90;;;;;;5082990;28;20402;-55
2021/11/27 11:52:56;;;;;;;3.90;1.00;;;4.20;99.90;;;;;;5085891;28;20385;-56
2021/11/27 11:55:22;;;;;;;5.00;0.90;;;4.40;99.90;;;;;;5085550;28;20394;-55
2021/11/27 11:57:52;;;;;;;6.32;2.13;;;4.50;99.90;;;;;;5080767;28;21075;-54
2021/11/27 12:00:29;;;;;;;4.63;1.42;;;4.70;99.90;;;;;;5078523;28;20476;-55
2021/11/27 12:03:04;;;;;;;3.60;0.90;;;4.90;99.90;;;;;;5070706;28;20407;-54
2021/11/27 12:05:32;;;;;;;4.28;1.48;;;4.80;99.90;;;;;;5071040;28;20411;-54
2021/11/27 12:07:58;;;;;;;6.43;1.50;;;5.10;99.90;;;;;;5073905;28;20459;-53
2021/11/27 12:10:38;;;;;;;4.43;1.50;;;5.40;99.90;;;;;;5085164;28;20422;-52
2021/11/27 12:13:10;;;;;;;4.50;1.50;;;5.70;99.90;;;;;;5081205;28;20891;-53
2021/11/27 12:15:46;;;;;;;5.53;2.10;;;5.80;99.90;;;;;;5074289;28;20412;-54
2021/11/27 12:18:17;;;;;;;5.95;2.00;;;5.90;99.90;;;;;;5080154;28;20482;-52
2021/11/27 12:20:49;;;;;;;5.57;2.00;;;5.80;99.90;;;;;;5080154;28;20436;-53
2021/11/27 12:23:32;;;;;;;4.95;1.67;;;5.60;99.90;;;;;;5072022;28;20858;-55
2021/11/27 12:26:10;;;;;;;5.40;2.30;;;5.30;99.90;;;;;;5069554;28;20398;-55
2021/11/27 12:28:51;;;;;;;4.90;1.70;;;5.40;99.90;;;;;;5074618;28;20521;-56
2021/11/27 12:31:25;;;;;;;5.03;2.05;;;5.50;99.90;;;;;;5068585;28;20412;-52
2021/11/27 12:34:07;;;;;;;5.60;2.30;;;5.60;99.90;;;;;;5068150;28;20737;-52
2021/11/27 12:36:40;;;;;;;5.40;1.83;;;5.70;99.90;;;;;;5072363;28;20426;-55
2021/11/27 12:39:08;;;;;;;25.02;12.57;;;5.90;99.90;;;;;;5083658;28;21024;-53
2021/11/27 12:41:41;;;;;;;5.80;2.42;;;6.00;99.90;;;;;;5075063;28;20411;-55
2021/11/27 12:44:30;;;;;;;5.80;2.90;;;6.10;99.90;;;;;;5081202;28;20399;-55
2021/11/27 12:47:13;;;;;;;4.53;1.50;;;6.10;99.90;;;;;;5067886;28;20397;-54
2021/11/27 12:49:39;;;;;;;5.60;2.30;;;6.10;99.90;;;;;;5068551;28;20900;-54
2021/11/27 12:52:13;;;;;;;6.15;2.42;;;6.10;99.90;;;;;;5069168;28;20435;-55
2021/11/27 12:54:42;;;;;;;5.50;2.10;;;6.10;99.90;;;;;;5068255;28;20465;-55
2021/11/27 12:57:17;;;;;;;5.10;2.10;;;5.70;99.90;;;;;;5080757;28;20382;-55
2021/11/27 12:59:47;;;;;;;5.80;2.50;;;5.80;99.90;;;;;;5073487;28;20441;-57